createdAt,value
2022-11-24T00:00:18.732Z,98277.56
2022-11-24T00:02:45.133Z,98268.41
2022-11-24T00:05:11.757Z,98291.25
2022-11-24T00:07:38.182Z,98288.34
2022-11-24T00:10:05.091Z,98293.97
2022-11-24T00:12:31.391Z,98294.84
2022-11-24T00:14:57.721Z,98304.19
2022-11-24T00:17:24.431Z,98287.28
2022-11-24T00:19:50.772Z,98293.25
2022-11-24T00:22:17.251Z,98295.78
2022-11-24T00:24:43.573Z,98311.38
2022-11-24T00:27:09.885Z,98304.63
2022-11-24T00:29:36.183Z,98306.97
2022-11-24T00:32:02.641Z,98308.38
2022-11-24T00:34:28.930Z,98319.66
2022-11-24T00:36:55.314Z,98310.53
2022-11-24T00:39:21.678Z,98321.34
2022-11-24T00:41:48.292Z,98325.97
2022-11-24T00:44:14.726Z,98322.59
2022-11-24T00:46:41.226Z,98338.63
2022-11-24T00:49:07.861Z,98332.69
2022-11-24T00:51:34.242Z,98346.03
2022-11-24T00:54:01.293Z,98349.91
2022-11-24T00:56:29.531Z,98341.03
2022-11-24T00:58:56.193Z,98347.16
2022-11-24T01:01:25.102Z,98349.16
2022-11-24T01:03:51.967Z,98359.53
2022-11-24T01:06:24.024Z,98359.69
2022-11-24T01:08:50.638Z,98369.06
2022-11-24T01:11:23.285Z,98365.34
2022-11-24T01:13:53.261Z,98373.47
2022-11-24T01:16:31.316Z,98367.22
2022-11-24T01:18:57.795Z,98373.38
2022-11-24T01:21:24.550Z,98373.03
2022-11-24T01:23:50.991Z,98364.72
2022-11-24T01:26:20.415Z,98378.63
2022-11-24T01:28:47.926Z,98381.53
2022-11-24T01:31:15.410Z,98388.28
2022-11-24T01:33:42.299Z,98376.34
2022-11-24T01:36:08.665Z,98388.63
2022-11-24T01:38:35.119Z,98390.78
2022-11-24T01:41:10.118Z,98388.81
2022-11-24T01:43:36.811Z,98386.50
2022-11-24T01:46:32.420Z,98385.84
2022-11-24T01:49:16.352Z,98401.69
2022-11-24T01:51:53.522Z,98393.53
2022-11-24T01:54:29.374Z,98394.03
2022-11-24T01:57:02.252Z,98407.50
2022-11-24T01:59:28.841Z,98395.84
2022-11-24T02:01:57.050Z,98403.50
2022-11-24T02:04:27.570Z,98404.81
2022-11-24T02:06:56.157Z,98402.22
2022-11-24T02:09:40.203Z,98403.81
2022-11-24T02:12:07.043Z,98406.66
2022-11-24T02:14:37.366Z,98411.88
2022-11-24T02:17:04.004Z,98401.38
2022-11-24T02:19:58.586Z,98413.63
2022-11-24T02:22:36.146Z,98417.63
2022-11-24T02:25:29.978Z,98416.97
2022-11-24T02:27:59.042Z,98420.72
2022-11-24T02:30:25.435Z,98420.00
2022-11-24T02:32:52.872Z,98424.81
2022-11-24T02:35:20.060Z,98418.41
2022-11-24T02:37:46.703Z,98425.41
2022-11-24T02:40:16.145Z,98437.19
2022-11-24T02:42:45.823Z,98431.75
2022-11-24T02:45:15.502Z,98431.75
2022-11-24T02:47:41.893Z,98435.94
2022-11-24T02:50:08.537Z,98431.56
2022-11-24T02:52:35.234Z,98437.41
2022-11-24T02:55:01.594Z,98437.41
2022-11-24T02:57:27.965Z,98438.34
2022-11-24T02:59:54.528Z,98436.59
2022-11-24T03:02:20.984Z,98437.31
2022-11-24T03:04:47.463Z,98436.69
2022-11-24T03:07:13.804Z,98438.34
2022-11-24T03:09:40.403Z,98436.97
2022-11-24T03:12:07.115Z,98440.22
2022-11-24T03:14:33.664Z,98442.13
2022-11-24T03:17:00.319Z,98444.53
2022-11-24T03:19:26.833Z,98438.72
2022-11-24T03:21:53.256Z,98448.91
2022-11-24T03:24:19.557Z,98447.00
2022-11-24T03:26:45.895Z,98451.50
2022-11-24T03:29:12.286Z,98447.50
2022-11-24T03:31:38.687Z,98452.22
2022-11-24T03:34:05.117Z,98452.13
2022-11-24T03:36:34.194Z,98443.09
2022-11-24T03:39:00.862Z,98458.59
2022-11-24T03:41:27.188Z,98462.06
2022-11-24T03:43:53.552Z,98458.38
2022-11-24T03:46:19.933Z,98457.53
2022-11-24T03:48:46.304Z,98452.94
2022-11-24T03:51:12.803Z,98464.97
2022-11-24T03:53:39.117Z,98459.38
2022-11-24T03:56:05.613Z,98470.31
2022-11-24T03:58:32.229Z,98468.53
2022-11-24T04:00:58.708Z,98464.31
2022-11-24T04:03:25.373Z,98479.19
2022-11-24T04:05:51.753Z,98475.66
2022-11-24T04:08:18.479Z,98475.88
2022-11-24T04:10:45.159Z,98477.75
2022-11-24T04:13:16.418Z,98490.19
2022-11-24T04:15:43.635Z,98475.56
2022-11-24T04:18:11.731Z,98482.34
2022-11-24T04:20:39.314Z,98494.59
2022-11-24T04:23:06.159Z,98490.41
2022-11-24T04:25:32.555Z,98496.28
2022-11-24T04:27:58.990Z,98491.25
2022-11-24T04:30:27.371Z,98495.53
2022-11-24T04:32:54.246Z,98491.78
2022-11-24T04:35:21.126Z,98490.50
2022-11-24T04:37:47.704Z,98493.06
2022-11-24T04:40:14.823Z,98502.06
2022-11-24T04:42:41.201Z,98498.44
2022-11-24T04:45:07.953Z,98510.59
2022-11-24T04:47:34.455Z,98503.97
2022-11-24T04:50:00.754Z,98494.00
2022-11-24T04:52:27.227Z,98503.47
2022-11-24T04:54:53.590Z,98509.97
2022-11-24T04:57:22.083Z,98507.28
2022-11-24T04:59:49.781Z,98520.03
2022-11-24T05:02:16.313Z,98520.13
2022-11-24T05:04:43.103Z,98520.50
2022-11-24T05:07:18.419Z,98530.59
2022-11-24T05:09:58.917Z,98529.53
2022-11-24T05:12:27.703Z,98539.31
2022-11-24T05:14:54.064Z,98543.84
2022-11-24T05:17:20.475Z,98544.28
2022-11-24T05:19:46.744Z,98533.56
2022-11-24T05:22:13.081Z,98535.16
2022-11-24T05:24:39.695Z,98536.72
2022-11-24T05:27:06.404Z,98550.38
2022-11-24T05:29:33.005Z,98553.44
2022-11-24T05:31:59.349Z,98547.84
2022-11-24T05:34:26.304Z,98552.13
2022-11-24T05:36:52.669Z,98543.59
2022-11-24T05:39:19.872Z,98560.34
2022-11-24T05:41:46.583Z,98552.81
2022-11-24T05:44:13.130Z,98551.50
2022-11-24T05:46:39.625Z,98556.00
2022-11-24T05:49:05.953Z,98553.50
2022-11-24T05:51:32.285Z,98552.91
2022-11-24T05:53:58.697Z,98543.06
2022-11-24T05:56:25.085Z,98552.41
2022-11-24T05:58:51.431Z,98546.16
2022-11-24T06:01:18.045Z,98555.56
2022-11-24T06:03:44.516Z,98565.19
2022-11-24T06:06:11.016Z,98559.50
2022-11-24T06:08:37.364Z,98558.03
2022-11-24T06:11:04.059Z,98568.94
2022-11-24T06:13:30.415Z,98578.69
2022-11-24T06:15:59.444Z,98570.28
2022-11-24T06:18:25.864Z,98577.72
2022-11-24T06:21:09.915Z,98581.75
2022-11-24T06:23:39.054Z,98577.34
2022-11-24T06:26:06.405Z,98577.34
2022-11-24T06:28:32.989Z,98587.56
2022-11-24T06:31:03.933Z,98590.34
2022-11-24T06:33:34.723Z,98599.25
2022-11-24T06:36:03.398Z,98596.13
2022-11-24T06:38:30.274Z,98597.00
2022-11-24T06:41:27.022Z,98586.66
2022-11-24T06:43:53.732Z,98599.38
2022-11-24T06:46:20.669Z,98592.97
2022-11-24T06:48:47.346Z,98595.59
2022-11-24T06:51:13.889Z,98607.22
2022-11-24T06:53:41.435Z,98608.50
2022-11-24T06:56:16.389Z,98625.31
2022-11-24T06:58:44.463Z,98633.91
2022-11-24T07:01:20.186Z,98634.81
2022-11-24T07:03:48.294Z,98637.75
2022-11-24T07:06:15.834Z,98634.56
2022-11-24T07:08:42.195Z,98631.75
2022-11-24T07:11:11.457Z,98640.13
2022-11-24T07:13:38.728Z,98641.09
2022-11-24T07:16:20.534Z,98646.75
2022-11-24T07:18:48.533Z,98643.31
2022-11-24T07:21:15.502Z,98638.69
2022-11-24T07:23:42.255Z,98644.84
2022-11-24T07:26:10.047Z,98652.56
2022-11-24T07:28:37.090Z,98656.31
2022-11-24T07:31:11.391Z,98657.47
2022-11-24T07:33:38.120Z,98655.19
2022-11-24T07:36:07.137Z,98663.25
2022-11-24T07:38:33.686Z,98651.16
2022-11-24T07:41:05.427Z,98659.56
2022-11-24T07:43:36.962Z,98659.66
2022-11-24T07:46:05.086Z,98661.69
2022-11-24T07:48:31.649Z,98666.41
2022-11-24T07:51:02.324Z,98666.41
2022-11-24T07:53:28.654Z,98658.34
2022-11-24T07:55:56.961Z,98662.00
2022-11-24T07:58:24.737Z,98654.50
2022-11-24T08:00:53.277Z,98648.38
2022-11-24T08:03:23.192Z,98655.63
2022-11-24T08:08:47.215Z,98657.75
2022-11-24T08:11:18.263Z,98663.31
2022-11-24T08:13:45.061Z,98664.25
2022-11-24T08:16:13.698Z,98661.50
2022-11-24T08:18:41.077Z,98662.44
2022-11-24T08:21:11.936Z,98657.50
2022-11-24T08:23:38.925Z,98659.06
2022-11-24T08:26:12.009Z,98650.41
2022-11-24T08:28:38.456Z,98653.53
2022-11-24T08:31:08.429Z,98637.41
2022-11-24T08:33:35.685Z,98642.66
2022-11-24T08:36:07.741Z,98646.84
2022-11-24T08:38:34.591Z,98662.97
2022-11-24T08:41:03.895Z,98666.56
2022-11-24T08:43:31.214Z,98655.38
2022-11-24T08:46:06.619Z,98670.22
2022-11-24T08:48:33.509Z,98674.13
2022-11-24T08:51:10.054Z,98676.31
2022-11-24T08:53:36.516Z,98685.44
2022-11-24T08:56:08.626Z,98684.34
2022-11-24T08:58:36.229Z,98685.69
2022-11-24T09:01:16.686Z,98685.84
2022-11-24T09:03:49.932Z,98697.22
2022-11-24T09:06:25.617Z,98698.59
2022-11-24T09:08:55.305Z,98706.59
2022-11-24T09:11:22.397Z,98711.47
2022-11-24T09:13:49.139Z,98711.53
2022-11-24T09:16:18.588Z,98711.16
2022-11-24T09:18:45.801Z,98714.84
2022-11-24T09:21:21.223Z,98713.59
2022-11-24T09:23:48.717Z,98714.16
2022-11-24T09:26:27.330Z,98718.06
2022-11-24T09:28:55.409Z,98709.03
2022-11-24T09:31:27.628Z,98718.28
2022-11-24T09:33:54.861Z,98734.72
2022-11-24T09:36:22.233Z,98730.41
2022-11-24T09:38:48.584Z,98723.50
2022-11-24T09:41:14.928Z,98733.56
2022-11-24T09:43:50.173Z,98728.41
2022-11-24T09:46:40.337Z,98730.16
2022-11-24T09:49:15.319Z,98738.06
2022-11-24T09:51:48.283Z,98741.41
2022-11-24T09:54:22.915Z,98740.03
2022-11-24T09:56:49.869Z,98735.94
2022-11-24T09:59:19.947Z,98744.06
2022-11-24T10:01:48.386Z,98751.09
2022-11-24T10:04:25.394Z,98746.28
2022-11-24T10:07:22.900Z,98744.94
2022-11-24T10:10:13.751Z,98737.88
2022-11-24T10:13:05.122Z,98744.59
2022-11-24T10:15:46.483Z,98748.50
2022-11-24T10:18:22.497Z,98753.03
2022-11-24T10:21:01.154Z,98753.78
2022-11-24T10:23:44.063Z,98755.72
2022-11-24T10:26:31.354Z,98758.31
2022-11-24T10:28:57.739Z,98753.97
2022-11-24T10:31:38.189Z,98759.06
2022-11-24T10:34:33.580Z,98753.06
2022-11-24T10:37:12.223Z,98761.53
2022-11-24T10:39:58.559Z,98758.00
2022-11-24T10:42:32.249Z,98756.81
2022-11-24T10:45:10.954Z,98756.63
2022-11-24T10:47:38.254Z,98756.53
2022-11-24T10:50:18.876Z,98749.66
2022-11-24T10:52:51.178Z,98744.16
2022-11-24T10:55:17.724Z,98748.75
2022-11-24T10:57:44.196Z,98748.72
2022-11-24T11:00:19.807Z,98749.56
2022-11-24T11:02:51.664Z,98751.03
2022-11-24T11:05:38.485Z,98759.63
2022-11-24T11:08:13.829Z,98761.91
2022-11-24T11:10:42.327Z,98764.38
2022-11-24T11:13:23.313Z,98763.69
2022-11-24T11:15:50.174Z,98768.31
2022-11-24T11:18:18.539Z,98768.03
2022-11-24T11:20:57.005Z,98772.16
2022-11-24T11:23:30.192Z,98779.41
2022-11-24T11:26:18.927Z,98775.66
2022-11-24T11:35:02.985Z,98780.91
2022-11-24T11:37:32.737Z,98782.47
2022-11-24T11:40:00.372Z,98784.56
2022-11-24T11:43:00.905Z,98782.00
2022-11-24T11:45:31.611Z,98784.06
2022-11-24T11:48:05.613Z,98793.47
2022-11-24T11:51:14.870Z,98788.75
2022-11-24T11:53:37.168Z,98792.88
2022-11-24T11:56:21.016Z,98806.28
2022-11-24T11:58:47.285Z,98803.22
2022-11-24T12:01:44.372Z,98799.41
2022-11-24T12:04:31.995Z,98804.94
2022-11-24T12:07:37.687Z,98810.03
2022-11-24T12:10:24.256Z,98813.13
2022-11-24T12:13:09.267Z,98814.69
2022-11-24T12:15:57.700Z,98801.63
2022-11-24T12:18:57.765Z,98806.97
2022-11-24T12:22:03.352Z,98813.41
2022-11-24T12:24:35.699Z,98818.94
2022-11-24T12:27:20.942Z,98820.31
2022-11-24T12:30:02.542Z,98811.97
2022-11-24T12:32:56.005Z,98828.34
2022-11-24T12:35:25.576Z,98825.22
2022-11-24T12:38:09.185Z,98820.34
2022-11-24T12:41:01.963Z,98822.22
2022-11-24T12:43:40.416Z,98821.69
2022-11-24T12:46:20.437Z,98815.22
2022-11-24T12:49:15.447Z,98812.31
2022-11-24T12:51:46.592Z,98816.31
2022-11-24T12:54:15.781Z,98811.31
2022-11-24T12:56:58.834Z,98810.09
2022-11-24T12:59:31.171Z,98824.00
2022-11-24T13:02:28.835Z,98837.38
2022-11-24T13:05:13.044Z,98828.28
2022-11-24T13:07:45.216Z,98827.53
2022-11-24T13:10:46.547Z,98833.88
2022-11-24T13:13:12.295Z,98840.28
2022-11-24T13:18:52.962Z,98844.31
2022-11-24T13:21:47.747Z,98849.72
2022-11-24T13:24:17.651Z,98857.34
2022-11-24T13:26:47.646Z,98848.31
2022-11-24T13:29:28.944Z,98857.13
2022-11-24T13:32:15.847Z,98855.47
2022-11-24T13:34:42.112Z,98863.94
2022-11-24T13:37:31.962Z,98862.97
2022-11-24T13:40:01.885Z,98865.63
2022-11-24T13:42:42.268Z,98870.75
2022-11-24T13:45:39.328Z,98871.81
2022-11-24T13:48:21.854Z,98879.59
2022-11-24T13:50:52.036Z,98871.00
2022-11-24T13:53:40.686Z,98877.38
2022-11-24T13:56:23.766Z,98879.78
2022-11-24T13:58:59.918Z,98884.41
2022-11-24T14:01:28.862Z,98877.19
2022-11-24T14:04:33.125Z,98894.44
2022-11-24T14:07:09.031Z,98899.25
2022-11-24T14:09:47.544Z,98892.44
2022-11-24T14:12:15.903Z,98903.03
2022-11-24T14:14:43.416Z,98901.53
2022-11-24T14:17:28.798Z,98905.44
2022-11-24T14:19:57.013Z,98914.22
2022-11-24T14:22:31.405Z,98911.34
2022-11-24T14:24:59.788Z,98914.00
2022-11-24T14:27:37.659Z,98915.50
2022-11-24T14:30:20.065Z,98921.47
2022-11-24T14:33:02.477Z,98914.38
2022-11-24T14:35:31.966Z,98922.94
2022-11-24T14:38:00.996Z,98918.13
2022-11-24T14:40:46.484Z,98923.19
2022-11-24T14:43:30.942Z,98920.50
2022-11-24T14:46:09.388Z,98932.31
2022-11-24T14:48:37.898Z,98928.53
2022-11-24T14:51:08.674Z,98933.59
2022-11-24T14:53:35.599Z,98940.22
2022-11-24T14:56:24.150Z,98938.75
2022-11-24T14:58:50.638Z,98943.78
2022-11-24T15:01:22.195Z,98945.88
2022-11-24T15:04:17.878Z,98937.91
2022-11-24T15:07:24.288Z,98951.56
2022-11-24T15:09:53.822Z,98950.94
2022-11-24T15:12:28.253Z,98952.16
2022-11-24T15:15:14.916Z,98956.50
2022-11-24T15:17:49.302Z,98959.94
2022-11-24T15:20:45.682Z,98952.16
2022-11-24T15:23:17.974Z,98972.22
2022-11-24T15:25:45.075Z,98963.16
2022-11-24T15:28:11.631Z,98954.69
2022-11-24T15:30:38.609Z,98971.19
2022-11-24T15:33:14.115Z,98975.38
2022-11-24T15:35:40.332Z,98974.72
2022-11-24T15:38:06.852Z,98969.50
2022-11-24T15:40:33.418Z,98975.09
2022-11-24T15:43:05.037Z,98972.41
2022-11-24T15:45:34.309Z,98977.84
2022-11-24T15:48:00.695Z,98972.16
2022-11-24T15:50:27.017Z,98978.44
2022-11-24T15:52:53.705Z,98980.75
2022-11-24T15:55:21.964Z,98987.91
2022-11-24T15:57:48.700Z,98991.78
2022-11-24T16:00:17.046Z,98992.50
2022-11-24T16:02:43.453Z,98989.31
2022-11-24T16:05:11.531Z,98991.25
2022-11-24T16:07:38.301Z,98986.88
2022-11-24T16:10:07.316Z,98992.44
2022-11-24T16:12:33.631Z,98996.97
2022-11-24T16:14:59.927Z,98998.31
2022-11-24T16:17:26.788Z,98984.81
2022-11-24T16:20:00.213Z,99001.94
2022-11-24T16:22:27.258Z,99008.78
2022-11-24T16:24:53.589Z,99013.91
2022-11-24T16:27:19.880Z,99013.50
2022-11-24T16:29:46.386Z,99003.59
2022-11-24T16:32:12.754Z,99014.72
2022-11-24T16:34:39.594Z,99012.91
2022-11-24T16:37:05.922Z,99011.88
2022-11-24T16:39:32.299Z,99008.72
2022-11-24T16:41:58.631Z,99013.13
2022-11-24T16:44:25.008Z,99005.84
2022-11-24T16:46:51.380Z,99016.53
2022-11-24T16:49:17.873Z,99027.38
2022-11-24T16:51:44.296Z,99026.31
2022-11-24T16:54:10.602Z,99030.97
2022-11-24T16:56:37.173Z,99033.81
2022-11-24T16:59:03.633Z,99038.03
2022-11-24T17:01:30.160Z,99037.00
2022-11-24T17:03:56.540Z,99039.22
2022-11-24T17:06:23.108Z,99045.03
2022-11-24T17:08:49.503Z,99041.31
2022-11-24T17:11:18.606Z,99050.81
2022-11-24T17:13:45.948Z,99049.75
2022-11-24T17:16:17.741Z,99053.31
2022-11-24T17:18:44.815Z,99050.31
2022-11-24T17:21:17.274Z,99055.94
2022-11-24T17:23:44.363Z,99063.34
2022-11-24T17:26:13.418Z,99053.31
2022-11-24T17:28:40.264Z,99064.69
2022-11-24T17:31:30.656Z,99056.16
2022-11-24T17:33:58.203Z,99061.16
2022-11-24T17:36:25.554Z,99044.38
2022-11-24T17:38:52.645Z,99051.31
2022-11-24T17:41:20.233Z,99052.25
2022-11-24T17:43:54.882Z,99065.34
2022-11-24T17:46:21.643Z,99070.06
2022-11-24T17:48:48.026Z,99064.97
2022-11-24T17:51:19.633Z,99073.69
2022-11-24T17:53:48.250Z,99068.53
2022-11-24T17:56:20.013Z,99083.31
2022-11-24T17:58:46.680Z,99075.00
2022-11-24T18:01:13.937Z,99076.19
2022-11-24T18:03:41.286Z,99084.94
2022-11-24T18:06:12.920Z,99089.41
2022-11-24T18:08:44.667Z,99086.41
2022-11-24T18:11:13.727Z,99093.72
2022-11-24T18:13:56.691Z,99095.84
2022-11-24T18:16:26.593Z,99093.84
2022-11-24T18:19:07.967Z,99090.75
2022-11-24T18:21:35.137Z,99099.06
2022-11-24T18:24:01.762Z,99091.59
2022-11-24T18:26:28.099Z,99094.56
2022-11-24T18:28:54.514Z,99101.66
2022-11-24T18:31:20.895Z,99089.19
2022-11-24T18:33:47.431Z,99098.72
2022-11-24T18:36:17.375Z,99110.22
2022-11-24T18:38:43.779Z,99103.72
2022-11-24T18:41:11.802Z,99108.56
2022-11-24T18:43:38.191Z,99095.13
2022-11-24T18:46:12.023Z,99097.47
2022-11-24T18:48:38.711Z,99103.75
2022-11-24T18:51:05.331Z,99101.84
2022-11-24T18:53:31.707Z,99109.66
2022-11-24T18:55:59.034Z,99101.69
2022-11-24T18:58:26.498Z,99102.03
2022-11-24T19:00:54.480Z,99110.88
2022-11-24T19:03:20.922Z,99099.38
2022-11-24T19:05:47.334Z,99114.31
2022-11-24T19:08:13.766Z,99113.88
2022-11-24T19:10:40.334Z,99112.25
2022-11-24T19:13:06.888Z,99116.09
2022-11-24T19:15:34.773Z,99119.75
2022-11-24T19:18:02.142Z,99112.59
2022-11-24T19:20:28.836Z,99126.75
2022-11-24T19:22:55.297Z,99119.38
2022-11-24T19:25:21.725Z,99123.06
2022-11-24T19:27:48.125Z,99123.38
2022-11-24T19:30:16.534Z,99127.13
2022-11-24T19:32:43.088Z,99129.88
2022-11-24T19:35:09.608Z,99132.97
2022-11-24T19:37:35.996Z,99130.41
2022-11-24T19:40:02.906Z,99140.94
2022-11-24T19:42:29.273Z,99145.78
2022-11-24T19:44:56.726Z,99144.44
2022-11-24T19:47:23.319Z,99132.91
2022-11-24T19:49:49.613Z,99144.81
2022-11-24T19:52:16.316Z,99143.47
2022-11-24T19:54:42.729Z,99153.94
2022-11-24T19:57:09.041Z,99123.09
2022-11-24T19:59:35.460Z,99158.88
2022-11-24T20:02:01.881Z,99145.78
2022-11-24T20:04:28.584Z,99153.59
2022-11-24T20:06:55.117Z,99148.72
2022-11-24T20:09:21.457Z,99156.81
2022-11-24T20:11:48.136Z,99151.13
2022-11-24T20:14:16.290Z,99159.19
2022-11-24T20:16:42.710Z,99148.34
2022-11-24T20:19:13.625Z,99152.72
2022-11-24T20:21:41.244Z,99158.94
2022-11-24T20:24:13.513Z,99159.19
2022-11-24T20:26:52.443Z,99153.50
2022-11-24T20:29:19.291Z,99172.66
2022-11-24T20:31:49.277Z,99172.16
2022-11-24T20:34:16.263Z,99173.13
2022-11-24T20:36:45.078Z,99171.56
2022-11-24T20:39:16.805Z,99175.66
2022-11-24T20:41:43.946Z,99162.50
2022-11-24T20:44:13.614Z,99167.34
2022-11-24T20:46:41.486Z,99172.66
2022-11-24T20:49:10.796Z,99184.22
2022-11-24T20:51:38.963Z,99168.03
2022-11-24T20:54:08.228Z,99175.88
2022-11-24T20:56:37.935Z,99166.44
2022-11-24T20:59:04.561Z,99166.69
2022-11-24T21:01:34.493Z,99165.97
2022-11-24T21:04:02.479Z,99156.88
2022-11-24T21:06:29.269Z,99165.78
2022-11-24T21:09:02.029Z,99184.00
2022-11-24T21:11:30.355Z,99177.28
2022-11-24T21:13:58.445Z,99176.78
2022-11-24T21:16:27.664Z,99165.66
2022-11-24T21:19:03.391Z,99169.41
2022-11-24T21:21:32.113Z,99176.28
2022-11-24T21:23:58.872Z,99169.03
2022-11-24T21:26:25.589Z,99174.91
2022-11-24T21:28:51.973Z,99182.78
2022-11-24T21:31:21.031Z,99183.88
2022-11-24T21:33:49.795Z,99180.69
2022-11-24T21:36:18.975Z,99181.69
2022-11-24T21:38:54.064Z,99187.75
2022-11-24T21:41:21.275Z,99190.53
2022-11-24T21:43:47.949Z,99189.00
2022-11-24T21:46:14.703Z,99196.09
2022-11-24T21:48:42.036Z,99192.72
2022-11-24T21:51:12.799Z,99193.63
2022-11-24T21:53:39.512Z,99208.44
2022-11-24T21:56:11.650Z,99209.28
2022-11-24T21:58:38.772Z,99211.28
2022-11-24T22:01:07.999Z,99208.81
2022-11-24T22:03:34.878Z,99209.53
2022-11-24T22:06:02.019Z,99208.69
2022-11-24T22:08:30.102Z,99211.53
2022-11-24T22:11:23.488Z,99196.91
2022-11-24T22:13:50.813Z,99204.84
2022-11-24T22:16:22.799Z,99194.78
2022-11-24T22:18:50.333Z,99199.81
2022-11-24T22:21:19.527Z,99201.63
2022-11-24T22:23:46.225Z,99199.97
2022-11-24T22:26:15.899Z,99200.16
2022-11-24T22:28:43.868Z,99202.00
2022-11-24T22:31:15.544Z,99199.50
2022-11-24T22:33:42.015Z,99193.59
2022-11-24T22:36:10.053Z,99187.53
2022-11-24T22:38:36.991Z,99197.09
2022-11-24T22:41:12.168Z,99207.59
2022-11-24T22:43:40.332Z,99210.53
2022-11-24T22:46:17.788Z,99205.56
2022-11-24T22:48:45.596Z,99213.41
2022-11-24T22:51:23.681Z,99202.28
2022-11-24T22:54:01.339Z,99211.13
2022-11-24T22:56:28.377Z,99211.28
2022-11-24T22:58:54.812Z,99202.66
2022-11-24T23:01:24.881Z,99201.94
2022-11-24T23:03:52.634Z,99210.56
2022-11-24T23:06:21.799Z,99212.34
2022-11-24T23:08:48.974Z,99205.59
2022-11-24T23:11:18.815Z,99198.06
2022-11-24T23:13:46.017Z,99208.97
2022-11-24T23:16:17.839Z,99209.97
2022-11-24T23:18:48.765Z,99204.97
2022-11-24T23:21:20.064Z,99212.03
2022-11-24T23:23:47.705Z,99211.31
2022-11-24T23:26:17.124Z,99214.13
2022-11-24T23:28:43.954Z,99212.47
2022-11-24T23:31:13.394Z,99220.34
2022-11-24T23:33:40.417Z,99213.44
2022-11-24T23:36:10.402Z,99212.63
2022-11-24T23:38:37.379Z,99205.66
2022-11-24T23:41:06.838Z,99205.66
2022-11-24T23:43:34.507Z,99202.38
2022-11-24T23:46:12.986Z,99205.91
2022-11-24T23:48:40.689Z,99216.41
2022-11-24T23:51:17.005Z,99212.25
2022-11-24T23:53:44.124Z,99216.75
2022-11-24T23:56:12.477Z,99214.28
2022-11-24T23:58:39.210Z,99211.13
